Rochester, MN (55901)

11:56 AM CST on February 07, 2016 (GMT -0600)
Honeckland, Elton Hills | | Change Station
CLOSE
Current Station
Personal Weather Station
Location: Rochester, MN
Elevation: 1037 ft
Nearby Weather Stations
Active Advisory: Winter Weather Advisory

Elev 1037 ft 44.05 °N, 92.48 °W | Updated 12 minutes ago

Clear
Clear
39.7 °F
Feels Like 32 °F
N
12.5
Wind Variable Wind from WSW

Today
High -- | Low -- °F
--% Chance of Precip.
Yesterday
High -- | Low -- °F
Precip. -- in
Pressure 29.67 in
Visibility 10.0 miles
Clouds Clear
Windchill 32 °F
Dew Point 30 °F
Humidity 69%
Rainfall 0.02 in
Snow Depth Not available.
7:20 AM 5:27 PM
Waning Crescent, 1% visible
METAR K9MN 071732Z AUTO 27014G27KT 10SM CLR 04/M03 A2967 RMK AO1 T00381029
Pressure 29.67 in
Visibility 10.0 miles
Clouds Clear
Windchill 32 °F
Dew Point 30 °F
Humidity 69%
Rainfall 0.02 in
Snow Depth Not available.
7:20 AM 5:27 PM
Waning Crescent, 1% visible
METAR K9MN 071732Z AUTO 27014G27KT 10SM CLR 04/M03 A2967 RMK AO1 T00381029

10-Day Weather Forecast

Almanac

Astronomy

Feb. 07, 2016 Rise Set
Actual Time
Civil Twilight
Nautical Twilight
Astronomical Twilight
Moon
Length of Visible Light
Length of Day
Tomorrow will be .
, % of the Moon is Illuminated

Today's Extremes

State Highs State Lows

Community

WunderPhotos

Upload Photos

1,891,248 photos uploaded!

WunderBlog® & News

Nearby

Air Quality

  Air Quality AQ Index Pollutant
Not available.

Snow Depth

Station Depth Elevation

Earthquake Activity

City Distance Mag. Time & Date
Minimum magnitude displayed is 2.5.

Coastal Water Temperatures

Place Temperature

Stations

Nearby Weather Stations

Station Location Temp. Windchill Dew Point Humidity Wind Precip. Elev Updated Type
                   

Watches & Warnings

Winter Weather Advisory
Issued: 10:59 AM CST Feb. 7, 2016 – National Weather Service

... Winter Weather Advisory remains in effect from 7 PM this
evening to noon CST Monday...

* expect snow to develop around 7 PM this evening and then
diminish around noon Monday.

* Total snow accumulations of up to 1.5 inches are expected.

* Winds gusting as high as 40 mph will cause areas of blowing
and drifting snow... especially on ridge tops and in open
areas. In addition... areas of poor visibility are expected.

* Plan on slippery Road conditions... including during the
morning commute on Monday.

Precautionary/preparedness actions...

A Winter Weather Advisory for snow means periods of snow will
cause primarily travel difficulties. Be prepared for snow covered
roads and limited visibilities... and use caution while driving.
The latest Road conditions for the state you are calling from can
be obtained by calling 5 1 1.